createdAt,value
2024-02-28T00:00:42.030Z,45.42
2024-02-28T00:03:08.712Z,45.05
2024-02-28T00:05:35.328Z,47.78
2024-02-28T00:08:01.887Z,46.53
2024-02-28T00:10:28.430Z,46.10
2024-02-28T00:12:55.069Z,48.42
2024-02-28T00:15:21.763Z,43.80
2024-02-28T00:17:48.368Z,47.95
2024-02-28T00:20:15.321Z,46.70
2024-02-28T00:22:43.625Z,47.10
2024-02-28T00:25:12.258Z,47.40
2024-02-28T00:27:38.896Z,49.47
2024-02-28T00:30:07.897Z,47.20
2024-02-28T00:32:34.646Z,49.70
2024-02-28T00:35:01.313Z,52.28
2024-02-28T00:37:28.082Z,50.22
2024-02-28T00:39:54.858Z,49.28
2024-02-28T00:42:21.528Z,53.45
2024-02-28T00:44:48.140Z,51.20
2024-02-28T00:47:14.742Z,52.53
2024-02-28T00:49:41.296Z,51.67
2024-02-28T00:52:07.851Z,48.80
2024-02-28T00:54:34.448Z,49.78
2024-02-28T00:57:01.099Z,51.58
2024-02-28T00:59:27.787Z,49.67
2024-02-28T01:01:54.389Z,52.05
2024-02-28T01:04:21.008Z,51.78
2024-02-28T01:06:47.747Z,54.67
2024-02-28T01:09:14.509Z,57.33
2024-02-28T01:11:41.188Z,57.95
2024-02-28T01:14:07.740Z,59.40
2024-02-28T01:16:34.622Z,57.53
2024-02-28T01:19:01.209Z,58.78
2024-02-28T01:21:27.946Z,55.45
2024-02-28T01:23:54.597Z,54.88
2024-02-28T01:26:23.221Z,54.67
2024-02-28T01:28:51.615Z,52.72
2024-02-28T01:31:18.182Z,58.00
2024-02-28T01:33:44.800Z,55.63
2024-02-28T01:36:13.113Z,55.10
2024-02-28T01:38:39.695Z,57.63
2024-02-28T01:41:06.661Z,59.50
2024-02-28T01:43:33.759Z,59.60
2024-02-28T01:46:04.577Z,58.28
2024-02-28T01:48:31.422Z,56.17
2024-02-28T01:50:58.516Z,55.08
2024-02-28T01:53:25.317Z,58.38
2024-02-28T01:55:53.052Z,60.78
2024-02-28T01:58:20.664Z,63.00
2024-02-28T02:00:48.421Z,61.13
2024-02-28T02:03:15.124Z,62.30
2024-02-28T02:05:43.640Z,65.57
2024-02-28T02:08:10.381Z,63.88
2024-02-28T02:10:36.942Z,64.28
2024-02-28T02:13:09.481Z,68.93
2024-02-28T02:15:36.205Z,71.38
2024-02-28T02:18:03.464Z,72.28
2024-02-28T02:20:33.719Z,72.18
2024-02-28T02:23:01.120Z,74.82
2024-02-28T02:25:27.702Z,74.38
2024-02-28T02:27:54.295Z,77.10
2024-02-28T02:30:20.952Z,78.07
2024-02-28T02:32:47.636Z,78.93
2024-02-28T02:35:14.290Z,75.93
2024-02-28T02:37:46.917Z,74.95
2024-02-28T02:40:13.658Z,78.10
2024-02-28T02:42:40.259Z,80.32
2024-02-28T02:45:07.318Z,75.32
2024-02-28T02:47:33.914Z,76.40
2024-02-28T02:50:00.532Z,83.50
2024-02-28T02:52:27.157Z,82.53
2024-02-28T02:54:53.757Z,76.88
2024-02-28T02:57:21.027Z,78.03
2024-02-28T02:59:47.616Z,80.45
2024-02-28T03:02:14.150Z,83.28
2024-02-28T03:04:40.747Z,79.05
2024-02-28T03:07:07.346Z,80.95
2024-02-28T03:09:35.037Z,79.13
2024-02-28T03:12:01.656Z,80.00
2024-02-28T03:14:28.396Z,81.78
2024-02-28T03:16:55.020Z,76.45
2024-02-28T03:19:22.012Z,82.95
2024-02-28T03:21:48.599Z,82.05
2024-02-28T03:24:15.305Z,79.05
2024-02-28T03:26:41.982Z,75.55
2024-02-28T03:29:08.541Z,79.88
2024-02-28T03:31:35.185Z,79.47
2024-02-28T03:34:01.932Z,81.63
2024-02-28T03:36:29.733Z,84.43
2024-02-28T03:38:56.313Z,84.43
2024-02-28T03:41:23.143Z,88.90
2024-02-28T03:43:49.790Z,86.90
2024-02-28T03:46:16.426Z,87.53
2024-02-28T03:48:43.001Z,88.80
2024-02-28T03:51:09.622Z,86.75
2024-02-28T03:53:36.451Z,85.85
2024-02-28T03:56:04.180Z,90.35
2024-02-28T03:58:30.748Z,91.25
2024-02-28T04:00:57.438Z,96.30
2024-02-28T04:03:24.060Z,92.60
2024-02-28T04:05:50.701Z,94.40
2024-02-28T04:08:17.245Z,94.55
2024-02-28T04:10:43.870Z,91.80
2024-02-28T04:13:10.572Z,89.50
2024-02-28T04:15:38.693Z,90.30
2024-02-28T04:18:05.888Z,90.72
2024-02-28T04:20:32.559Z,86.35
2024-02-28T04:22:59.174Z,93.55
2024-02-28T04:25:25.750Z,104.03
2024-02-28T04:27:52.457Z,107.65
2024-02-28T04:30:19.402Z,99.05
2024-02-28T04:32:46.048Z,103.10
2024-02-28T04:35:12.760Z,113.15
2024-02-28T04:37:39.378Z,109.38
2024-02-28T04:40:07.950Z,101.47
2024-02-28T04:42:34.711Z,101.13
2024-02-28T04:45:01.314Z,105.65
2024-02-28T04:47:33.679Z,106.03
2024-02-28T04:50:07.020Z,106.28
2024-02-28T04:52:34.626Z,110.20
2024-02-28T04:55:01.943Z,115.07
2024-02-28T04:57:28.650Z,113.40
2024-02-28T04:59:55.497Z,104.78
2024-02-28T05:02:26.937Z,110.50
2024-02-28T05:04:53.729Z,109.13
2024-02-28T05:07:20.307Z,106.97
2024-02-28T05:09:47.103Z,103.85
2024-02-28T05:12:13.827Z,108.45
2024-02-28T05:14:40.409Z,97.35
2024-02-28T05:17:07.021Z,105.30
2024-02-28T05:19:33.636Z,109.38
2024-02-28T05:22:02.191Z,115.82
2024-02-28T05:24:28.869Z,99.63
2024-02-28T05:26:55.449Z,99.83
2024-02-28T05:29:21.998Z,109.78
2024-02-28T05:31:48.595Z,109.28
2024-02-28T05:34:15.202Z,108.82
2024-02-28T05:36:42.032Z,115.93
2024-02-28T05:39:09.418Z,109.32
2024-02-28T05:41:35.982Z,104.43
2024-02-28T05:44:02.528Z,116.30
2024-02-28T05:46:29.263Z,117.93
2024-02-28T05:48:55.914Z,81.85
2024-02-28T05:51:23.668Z,52.95
2024-02-28T05:53:50.440Z,84.38
2024-02-28T05:56:18.117Z,61.22
2024-02-28T05:58:46.047Z,71.78
2024-02-28T06:01:16.011Z,61.40
2024-02-28T06:03:42.709Z,62.33
2024-02-28T06:06:09.268Z,49.15
2024-02-28T06:08:41.559Z,43.70
2024-02-28T06:11:09.123Z,44.73
2024-02-28T06:13:35.690Z,53.25
2024-02-28T06:16:03.127Z,70.18
2024-02-28T06:18:34.440Z,83.20
2024-02-28T06:21:01.991Z,76.22
2024-02-28T06:23:29.744Z,94.50
2024-02-28T06:25:57.764Z,108.10
2024-02-28T06:28:24.455Z,122.57
2024-02-28T06:30:51.197Z,106.95
2024-02-28T06:33:17.990Z,99.97
2024-02-28T06:35:44.584Z,91.78
2024-02-28T06:38:11.133Z,108.13
2024-02-28T06:40:37.920Z,92.90
2024-02-28T06:43:05.184Z,92.28
2024-02-28T06:45:31.935Z,103.18
2024-02-28T06:47:59.217Z,120.85
2024-02-28T06:50:25.812Z,111.20
2024-02-28T06:52:54.996Z,114.75
2024-02-28T06:55:22.151Z,125.53
2024-02-28T06:57:49.198Z,117.63
2024-02-28T07:00:17.516Z,109.43
2024-02-28T07:02:44.334Z,134.98
2024-02-28T07:05:11.176Z,120.75
2024-02-28T07:07:37.740Z,133.43
2024-02-28T07:10:05.724Z,118.78
2024-02-28T07:12:32.989Z,114.10
2024-02-28T07:14:59.825Z,99.68
2024-02-28T07:17:26.440Z,90.18
2024-02-28T07:19:52.994Z,110.80
2024-02-28T07:22:19.821Z,113.75
2024-02-28T07:24:46.401Z,97.70
2024-02-28T07:27:13.051Z,124.65
2024-02-28T07:29:39.671Z,106.07
2024-02-28T07:32:06.454Z,138.40
2024-02-28T07:34:33.483Z,154.80
2024-02-28T07:37:00.187Z,110.28
2024-02-28T07:39:26.964Z,109.85
2024-02-28T07:41:56.381Z,95.13
2024-02-28T07:44:23.794Z,111.85
2024-02-28T07:46:52.228Z,138.77
2024-02-28T07:49:19.689Z,110.00
2024-02-28T07:51:46.779Z,116.95
2024-02-28T07:54:13.640Z,112.28
2024-02-28T07:56:40.290Z,103.63
2024-02-28T07:59:06.980Z,112.97
2024-02-28T08:01:34.578Z,112.50
2024-02-28T08:04:03.301Z,137.17
2024-02-28T08:06:30.375Z,141.20
2024-02-28T08:08:56.993Z,104.60
2024-02-28T08:11:24.510Z,103.93
2024-02-28T08:13:51.108Z,122.10
2024-02-28T08:16:17.797Z,117.85
2024-02-28T08:18:44.372Z,102.35
2024-02-28T08:21:10.945Z,103.55
2024-02-28T08:23:37.510Z,81.63
2024-02-28T08:26:04.958Z,104.95
2024-02-28T08:28:31.628Z,102.82
2024-02-28T08:30:59.603Z,121.57
2024-02-28T08:33:26.452Z,142.80
2024-02-28T08:35:53.336Z,88.70
2024-02-28T08:38:19.921Z,101.20
2024-02-28T08:40:46.882Z,126.57
2024-02-28T08:43:13.877Z,115.28
2024-02-28T08:45:40.694Z,120.13
2024-02-28T08:48:08.654Z,112.82
2024-02-28T08:50:35.547Z,103.35
2024-02-28T08:53:03.264Z,104.50
2024-02-28T08:55:30.405Z,85.90
2024-02-28T08:57:57.206Z,95.57
2024-02-28T09:00:24.077Z,97.30
2024-02-28T09:02:50.788Z,98.10
2024-02-28T09:05:17.563Z,99.13
2024-02-28T09:07:44.307Z,121.30
2024-02-28T09:10:12.269Z,96.13
2024-02-28T09:12:39.308Z,107.90
2024-02-28T09:15:06.618Z,110.57
2024-02-28T09:17:33.269Z,84.80
2024-02-28T09:20:02.344Z,83.00
2024-02-28T09:22:29.143Z,96.03
2024-02-28T09:24:55.970Z,96.15
2024-02-28T09:27:22.820Z,86.97
2024-02-28T09:29:49.405Z,88.68
2024-02-28T09:32:16.284Z,96.78
2024-02-28T09:34:43.022Z,102.55
2024-02-28T09:37:09.852Z,97.40
2024-02-28T09:39:39.911Z,98.55
2024-02-28T09:42:08.113Z,88.50
2024-02-28T09:44:35.833Z,95.85
2024-02-28T09:47:02.606Z,86.63
2024-02-28T09:49:32.049Z,87.85
2024-02-28T09:52:00.626Z,88.88
2024-02-28T09:54:27.425Z,98.70
2024-02-28T09:56:54.658Z,96.23
2024-02-28T09:59:24.943Z,78.72
2024-02-28T10:01:59.215Z,76.73
2024-02-28T10:04:28.794Z,79.05
2024-02-28T10:06:55.524Z,72.88
2024-02-28T10:09:22.172Z,66.72
2024-02-28T10:11:48.837Z,68.18
2024-02-28T10:14:20.154Z,58.67
2024-02-28T10:16:46.787Z,57.17
2024-02-28T10:19:14.062Z,56.13
2024-02-28T10:21:40.780Z,58.63
2024-02-28T10:24:07.595Z,55.80
2024-02-28T10:26:39.534Z,50.60
2024-02-28T10:29:08.812Z,46.75
2024-02-28T10:31:36.690Z,50.65
2024-02-28T10:34:05.189Z,52.35
2024-02-28T10:36:34.029Z,51.80
2024-02-28T10:39:02.124Z,49.20
2024-02-28T10:41:29.931Z,51.50
2024-02-28T10:43:56.681Z,49.05
2024-02-28T10:46:35.404Z,65.13
2024-02-28T10:49:03.801Z,71.22
2024-02-28T10:51:37.897Z,61.20
2024-02-28T10:54:12.818Z,86.82
2024-02-28T10:56:42.303Z,63.47
2024-02-28T10:59:14.037Z,44.38
2024-02-28T11:01:43.602Z,43.53
2024-02-28T11:04:12.052Z,46.10
2024-02-28T11:06:53.403Z,45.88
2024-02-28T11:09:29.558Z,41.70
2024-02-28T11:11:57.055Z,37.83
2024-02-28T11:14:26.683Z,42.60
2024-02-28T11:17:04.160Z,42.85
2024-02-28T11:19:35.958Z,42.90
2024-02-28T11:22:04.955Z,40.88
2024-02-28T11:24:33.752Z,38.75
2024-02-28T11:27:00.478Z,35.47
2024-02-28T11:29:29.619Z,39.13
2024-02-28T11:31:56.533Z,35.00
2024-02-28T11:34:23.405Z,38.45
2024-02-28T11:36:52.083Z,36.97
2024-02-28T11:39:19.697Z,36.78
2024-02-28T11:41:47.553Z,37.10
2024-02-28T11:44:18.170Z,35.95
2024-02-28T11:46:54.211Z,33.33
2024-02-28T11:49:20.826Z,35.43
2024-02-28T11:51:47.746Z,37.78
2024-02-28T11:54:14.588Z,36.17
2024-02-28T11:56:42.380Z,34.57
2024-02-28T11:59:11.441Z,34.30
2024-02-28T12:01:47.975Z,39.03
2024-02-28T12:04:14.959Z,36.03
2024-02-28T12:06:42.148Z,34.00
2024-02-28T12:09:10.667Z,31.83
2024-02-28T12:11:38.345Z,36.27
2024-02-28T12:14:08.143Z,33.05
2024-02-28T12:16:34.785Z,30.88
2024-02-28T12:19:01.573Z,31.27
2024-02-28T12:21:28.537Z,31.55
2024-02-28T12:23:57.485Z,33.03
2024-02-28T12:26:24.032Z,32.92
2024-02-28T12:28:50.755Z,33.20
2024-02-28T12:31:17.490Z,34.50
2024-02-28T12:33:44.121Z,35.17
2024-02-28T12:36:11.238Z,38.60
2024-02-28T12:38:37.918Z,37.38
2024-02-28T12:41:05.076Z,42.35
2024-02-28T12:43:33.064Z,40.97
2024-02-28T12:46:00.479Z,41.50
2024-02-28T12:48:27.318Z,40.57
2024-02-28T12:50:53.902Z,42.40
2024-02-28T12:53:20.602Z,40.65
2024-02-28T12:55:47.166Z,40.45
2024-02-28T12:58:13.780Z,113.17
2024-02-28T13:00:43.018Z,71.03
2024-02-28T13:03:10.311Z,47.92
2024-02-28T13:05:37.006Z,86.45
2024-02-28T13:08:04.738Z,68.05
2024-02-28T13:10:31.642Z,48.10
2024-02-28T13:12:58.276Z,50.15
2024-02-28T13:15:25.067Z,59.30
2024-02-28T13:17:53.623Z,43.37
2024-02-28T13:20:20.369Z,45.55
2024-02-28T13:22:46.997Z,66.60
2024-02-28T13:25:15.494Z,63.47
2024-02-28T13:27:42.540Z,51.23
2024-02-28T13:30:09.734Z,66.00
2024-02-28T13:32:36.656Z,102.80
2024-02-28T13:35:03.475Z,63.60
2024-02-28T13:37:30.052Z,88.00
2024-02-28T13:39:57.709Z,74.43
2024-02-28T13:42:25.730Z,108.45
2024-02-28T13:44:52.841Z,74.32
2024-02-28T13:47:19.412Z,77.93
2024-02-28T13:49:46.199Z,46.63
2024-02-28T13:52:12.952Z,36.28
2024-02-28T13:54:39.633Z,50.08
2024-02-28T13:57:07.969Z,44.15
2024-02-28T13:59:35.666Z,37.80
2024-02-28T14:02:02.611Z,41.53
2024-02-28T14:04:29.615Z,47.45
2024-02-28T14:06:56.214Z,56.00
2024-02-28T14:09:22.864Z,43.73
2024-02-28T14:11:49.649Z,61.63
2024-02-28T14:14:16.878Z,42.15
2024-02-28T14:16:44.363Z,35.10
2024-02-28T14:19:11.023Z,40.57
2024-02-28T14:21:37.721Z,36.67
2024-02-28T14:24:04.951Z,39.47
2024-02-28T14:26:31.576Z,39.88
2024-02-28T14:28:58.227Z,37.85
2024-02-28T14:31:25.845Z,37.50
2024-02-28T14:33:52.782Z,40.38
2024-02-28T14:36:21.916Z,44.45
2024-02-28T14:38:48.686Z,48.95
2024-02-28T14:41:15.802Z,36.10
2024-02-28T14:43:42.402Z,36.25
2024-02-28T14:46:11.410Z,74.43
2024-02-28T14:48:38.297Z,38.83
2024-02-28T14:51:05.698Z,70.22
2024-02-28T14:53:32.291Z,59.67
2024-02-28T14:55:59.043Z,61.95
2024-02-28T14:58:25.700Z,45.95
2024-02-28T15:00:52.478Z,88.43
2024-02-28T15:03:19.746Z,41.67
2024-02-28T15:05:46.545Z,53.38
2024-02-28T15:08:15.284Z,34.33
2024-02-28T15:10:42.130Z,33.65
2024-02-28T15:13:08.827Z,58.22
2024-02-28T15:15:36.448Z,30.48
2024-02-28T15:18:04.195Z,26.17
2024-02-28T15:20:30.753Z,28.88
2024-02-28T15:22:57.361Z,25.10
2024-02-28T15:25:24.118Z,19.95
2024-02-28T15:27:50.802Z,22.77
2024-02-28T15:30:17.478Z,22.52
2024-02-28T15:32:44.848Z,20.90
2024-02-28T15:35:12.130Z,25.92
2024-02-28T15:37:39.486Z,34.80
2024-02-28T15:40:07.807Z,34.75
2024-02-28T15:42:35.217Z,25.65
2024-02-28T15:45:01.960Z,26.85
2024-02-28T15:47:31.443Z,27.00
2024-02-28T15:50:00.125Z,28.17
2024-02-28T15:52:26.700Z,26.92
2024-02-28T15:54:53.267Z,26.10
2024-02-28T15:57:19.896Z,28.48
2024-02-28T15:59:46.502Z,30.15
2024-02-28T16:02:13.239Z,29.50
2024-02-28T16:04:39.972Z,30.90
2024-02-28T16:07:08.809Z,27.10
2024-02-28T16:09:35.513Z,28.10
2024-02-28T16:12:03.734Z,27.52
2024-02-28T16:14:30.298Z,28.08
2024-02-28T16:16:56.919Z,28.00
2024-02-28T16:19:27.300Z,29.63
2024-02-28T16:21:55.257Z,28.07
2024-02-28T16:24:22.348Z,26.77
2024-02-28T16:26:49.095Z,26.92
2024-02-28T16:29:15.720Z,31.15
2024-02-28T16:31:44.530Z,30.42
2024-02-28T16:34:11.164Z,31.83
2024-02-28T16:36:38.011Z,31.57
2024-02-28T16:39:04.675Z,31.27
2024-02-28T16:41:31.339Z,30.45
2024-02-28T16:43:58.741Z,31.23
2024-02-28T16:46:25.636Z,34.65
2024-02-28T16:48:52.373Z,32.85
2024-02-28T16:51:20.640Z,33.75
2024-02-28T16:53:47.465Z,36.83
2024-02-28T16:56:14.046Z,36.58
2024-02-28T16:58:44.155Z,35.80
2024-02-28T17:01:11.303Z,36.97
2024-02-28T17:03:38.203Z,37.83
2024-02-28T17:06:06.239Z,38.28
2024-02-28T17:08:36.235Z,37.97
2024-02-28T17:11:04.521Z,38.38
2024-02-28T17:13:31.486Z,38.67
2024-02-28T17:16:03.845Z,34.78
2024-02-28T17:18:32.104Z,36.22
2024-02-28T17:20:59.929Z,36.28
2024-02-28T17:23:26.689Z,36.22
2024-02-28T17:25:56.774Z,39.22
2024-02-28T17:28:23.659Z,37.20
2024-02-28T17:30:50.259Z,39.20
2024-02-28T17:33:17.152Z,38.95
2024-02-28T17:35:45.115Z,38.05
2024-02-28T17:38:11.768Z,38.50
2024-02-28T17:40:38.349Z,39.78
2024-02-28T17:43:05.499Z,38.00
2024-02-28T17:45:32.381Z,40.05
2024-02-28T17:47:59.470Z,40.80
2024-02-28T17:50:26.241Z,38.45
2024-02-28T17:52:52.958Z,42.53
2024-02-28T17:55:19.698Z,37.80
2024-02-28T17:57:47.577Z,39.55
2024-02-28T18:00:14.579Z,39.25
2024-02-28T18:02:42.340Z,36.47
2024-02-28T18:05:10.419Z,39.45
2024-02-28T18:07:37.292Z,39.47
2024-02-28T18:10:08.166Z,39.58
2024-02-28T18:12:35.018Z,40.13
2024-02-28T18:15:01.706Z,39.88
2024-02-28T18:17:29.418Z,40.10
2024-02-28T18:19:56.129Z,38.22
2024-02-28T18:22:22.669Z,39.58
2024-02-28T18:24:49.361Z,37.80
2024-02-28T18:27:15.970Z,40.87
2024-02-28T18:29:42.832Z,37.03
2024-02-28T18:32:09.764Z,39.95
2024-02-28T18:34:36.413Z,40.63
2024-02-28T18:37:03.318Z,38.70
2024-02-28T18:39:30.028Z,39.30
2024-02-28T18:41:59.366Z,36.90
2024-02-28T18:44:26.426Z,37.30
2024-02-28T18:46:53.024Z,41.03
2024-02-28T18:49:19.841Z,36.97
2024-02-28T18:51:46.755Z,36.03
2024-02-28T18:54:13.360Z,36.65
2024-02-28T18:56:40.023Z,37.13
2024-02-28T18:59:06.641Z,40.30
2024-02-28T19:01:33.318Z,37.45
2024-02-28T19:04:00.317Z,39.70
2024-02-28T19:06:27.361Z,39.20
2024-02-28T19:08:53.985Z,44.90
2024-02-28T19:11:21.048Z,44.20
2024-02-28T19:13:47.803Z,45.25
2024-02-28T19:16:15.063Z,42.80
2024-02-28T19:18:42.995Z,41.38
2024-02-28T19:21:09.712Z,48.15
2024-02-28T19:23:38.106Z,54.97
2024-02-28T19:26:05.019Z,54.97
2024-02-28T19:28:31.570Z,55.65
2024-02-28T19:31:01.200Z,52.95
